sensor_id;sensor_type;location;lat;lon;timestamp;temperature;humidity
45213;DHT22;35816;44.498;0.166;2022-10-15T02:32:23;17.20;99.90
45213;DHT22;35816;44.498;0.166;2022-10-15T03:03:37;17.30;99.90
45213;DHT22;35816;44.498;0.166;2022-10-15T08:07:07;17.10;99.90
45213;DHT22;35816;44.498;0.166;2022-10-15T08:13:26;17.20;99.90
45213;DHT22;35816;44.498;0.166;2022-10-15T08:16:43;17.40;99.90
45213;DHT22;35816;44.498;0.166;2022-10-15T08:23:15;17.70;99.90
45213;DHT22;35816;44.498;0.166;2022-10-15T08:29:43;18.00;99.90
45213;DHT22;35816;44.498;0.166;2022-10-15T08:35:48;18.30;99.90
45213;DHT22;35816;44.498;0.166;2022-10-15T08:45:18;19.20;99.90
45213;DHT22;35816;44.498;0.166;2022-10-15T08:48:43;19.80;99.90
45213;DHT22;35816;44.498;0.166;2022-10-15T08:54:55;20.70;99.90
45213;DHT22;35816;44.498;0.166;2022-10-15T09:00:34;21.00;99.90
45213;DHT22;35816;44.498;0.166;2022-10-15T09:09:42;20.60;99.90
45213;DHT22;35816;44.498;0.166;2022-10-15T09:12:23;20.90;99.90
45213;DHT22;35816;44.498;0.166;2022-10-15T09:14:49;21.50;99.90
45213;DHT22;35816;44.498;0.166;2022-10-15T09:17:18;22.20;99.90
45213;DHT22;35816;44.498;0.166;2022-10-15T09:19:44;22.90;99.90
45213;DHT22;35816;44.498;0.166;2022-10-15T09:22:13;23.50;99.90
45213;DHT22;35816;44.498;0.166;2022-10-15T09:24:39;24.20;99.90
45213;DHT22;35816;44.498;0.166;2022-10-15T09:29:38;25.40;94.60
45213;DHT22;35816;44.498;0.166;2022-10-15T09:34:34;26.00;87.70
45213;DHT22;35816;44.498;0.166;2022-10-15T09:37:04;26.30;81.50
45213;DHT22;35816;44.498;0.166;2022-10-15T09:42:12;26.50;75.90
45213;DHT22;35816;44.498;0.166;2022-10-15T09:44:41;26.30;73.20
45213;DHT22;35816;44.498;0.166;2022-10-15T09:47:14;26.30;74.60
45213;DHT22;35816;44.498;0.166;2022-10-15T09:49:41;26.80;73.80
45213;DHT22;35816;44.498;0.166;2022-10-15T09:52:09;27.30;71.50
45213;DHT22;35816;44.498;0.166;2022-10-15T09:54:58;27.70;69.10
45213;DHT22;35816;44.498;0.166;2022-10-15T09:57:26;28.00;68.50
45213;DHT22;35816;44.498;0.166;2022-10-15T09:59:56;28.40;67.10
45213;DHT22;35816;44.498;0.166;2022-10-15T10:02:22;28.80;66.50
45213;DHT22;35816;44.498;0.166;2022-10-15T10:04:48;29.00;64.10
45213;DHT22;35816;44.498;0.166;2022-10-15T10:07:29;28.90;61.70
45213;DHT22;35816;44.498;0.166;2022-10-15T10:09:56;28.90;62.00
45213;DHT22;35816;44.498;0.166;2022-10-15T10:12:24;29.40;62.80
45213;DHT22;35816;44.498;0.166;2022-10-15T10:14:53;30.10;63.20
45213;DHT22;35816;44.498;0.166;2022-10-15T10:17:24;30.70;61.60
45213;DHT22;35816;44.498;0.166;2022-10-15T10:22:27;31.70;59.80
45213;DHT22;35816;44.498;0.166;2022-10-15T10:24:52;32.10;56.80
45213;DHT22;35816;44.498;0.166;2022-10-15T10:27:19;32.20;57.00
45213;DHT22;35816;44.498;0.166;2022-10-15T10:29:47;32.30;55.50
45213;DHT22;35816;44.498;0.166;2022-10-15T10:32:18;32.10;54.20
45213;DHT22;35816;44.498;0.166;2022-10-15T10:34:44;32.20;54.20
45213;DHT22;35816;44.498;0.166;2022-10-15T10:37:10;32.30;53.60
45213;DHT22;35816;44.498;0.166;2022-10-15T10:39:36;32.40;52.70
45213;DHT22;35816;44.498;0.166;2022-10-15T10:42:06;32.60;52.00
45213;DHT22;35816;44.498;0.166;2022-10-15T10:44:37;32.50;51.00
45213;DHT22;35816;44.498;0.166;2022-10-15T10:49:35;32.30;50.80
45213;DHT22;35816;44.498;0.166;2022-10-15T10:52:02;32.20;50.30
45213;DHT22;35816;44.498;0.166;2022-10-15T10:54:28;32.20;49.60
45213;DHT22;35816;44.498;0.166;2022-10-15T10:56:55;32.10;50.40
45213;DHT22;35816;44.498;0.166;2022-10-15T10:59:26;32.50;50.40
45213;DHT22;35816;44.498;0.166;2022-10-15T11:01:53;32.80;50.20
45213;DHT22;35816;44.498;0.166;2022-10-15T11:04:22;33.20;49.80
45213;DHT22;35816;44.498;0.166;2022-10-15T11:06:52;33.60;48.70
45213;DHT22;35816;44.498;0.166;2022-10-15T11:14:30;34.70;48.20
45213;DHT22;35816;44.498;0.166;2022-10-15T11:19:29;35.20;47.90
45213;DHT22;35816;44.498;0.166;2022-10-15T11:27:29;36.50;46.20
45213;DHT22;35816;44.498;0.166;2022-10-15T11:32:40;37.10;45.80
45213;DHT22;35816;44.498;0.166;2022-10-15T11:35:19;37.30;46.00
45213;DHT22;35816;44.498;0.166;2022-10-15T11:47:49;37.70;43.90
45213;DHT22;35816;44.498;0.166;2022-10-15T11:50:21;37.60;44.00
45213;DHT22;35816;44.498;0.166;2022-10-15T11:52:58;37.50;43.90
45213;DHT22;35816;44.498;0.166;2022-10-15T11:55:40;37.50;43.60
45213;DHT22;35816;44.498;0.166;2022-10-15T11:58:20;37.10;42.90
45213;DHT22;35816;44.498;0.166;2022-10-15T12:00:50;36.60;43.10
45213;DHT22;35816;44.498;0.166;2022-10-15T12:03:20;36.50;43.50
45213;DHT22;35816;44.498;0.166;2022-10-15T12:05:50;36.90;43.90
45213;DHT22;35816;44.498;0.166;2022-10-15T12:08:17;37.40;43.80
45213;DHT22;35816;44.498;0.166;2022-10-15T12:15:43;38.60;43.00
45213;DHT22;35816;44.498;0.166;2022-10-15T12:20:44;39.40;41.30
45213;DHT22;35816;44.498;0.166;2022-10-15T12:25:55;39.60;40.70
45213;DHT22;35816;44.498;0.166;2022-10-15T12:28:25;39.50;40.20
45213;DHT22;35816;44.498;0.166;2022-10-15T12:33:36;39.90;39.70
45213;DHT22;35816;44.498;0.166;2022-10-15T12:36:14;40.20;39.40
45213;DHT22;35816;44.498;0.166;2022-10-15T12:38:54;39.80;39.50
45213;DHT22;35816;44.498;0.166;2022-10-15T12:41:20;39.50;39.80
45213;DHT22;35816;44.498;0.166;2022-10-15T12:43:50;39.30;39.10
45213;DHT22;35816;44.498;0.166;2022-10-15T12:46:18;38.40;38.90
45213;DHT22;35816;44.498;0.166;2022-10-15T12:48:44;37.20;40.20
45213;DHT22;35816;44.498;0.166;2022-10-15T12:53:51;36.00;40.20
45213;DHT22;35816;44.498;0.166;2022-10-15T12:56:35;35.50;40.50
45213;DHT22;35816;44.498;0.166;2022-10-15T12:59:01;35.10;41.10
45213;DHT22;35816;44.498;0.166;2022-10-15T13:01:28;34.70;41.30
45213;DHT22;35816;44.498;0.166;2022-10-15T13:03:55;34.50;41.70
45213;DHT22;35816;44.498;0.166;2022-10-15T13:13:58;33.60;42.40
45213;DHT22;35816;44.498;0.166;2022-10-15T13:16:25;32.90;42.60
45213;DHT22;35816;44.498;0.166;2022-10-15T13:18:52;32.40;43.30
45213;DHT22;35816;44.498;0.166;2022-10-15T13:21:17;31.90;43.50
45213;DHT22;35816;44.498;0.166;2022-10-15T13:23:44;31.50;44.10
45213;DHT22;35816;44.498;0.166;2022-10-15T13:26:11;31.20;44.50
45213;DHT22;35816;44.498;0.166;2022-10-15T13:28:38;31.00;44.90
45213;DHT22;35816;44.498;0.166;2022-10-15T13:31:18;30.80;45.20
45213;DHT22;35816;44.498;0.166;2022-10-15T13:33:46;30.70;45.40
45213;DHT22;35816;44.498;0.166;2022-10-15T13:36:15;30.60;45.70
45213;DHT22;35816;44.498;0.166;2022-10-15T13:38:42;30.40;45.80
45213;DHT22;35816;44.498;0.166;2022-10-15T13:41:08;30.20;46.00
45213;DHT22;35816;44.498;0.166;2022-10-15T13:43:33;29.90;46.30
45213;DHT22;35816;44.498;0.166;2022-10-15T13:45:59;29.70;46.60
45213;DHT22;35816;44.498;0.166;2022-10-15T13:48:30;29.40;46.90
45213;DHT22;35816;44.498;0.166;2022-10-15T13:50:57;29.30;47.20
45213;DHT22;35816;44.498;0.166;2022-10-15T13:55:56;29.20;47.50
45213;DHT22;35816;44.498;0.166;2022-10-15T13:58:26;29.10;47.80
45213;DHT22;35816;44.498;0.166;2022-10-15T14:01:09;29.00;47.90
45213;DHT22;35816;44.498;0.166;2022-10-15T14:03:44;28.90;47.90
45213;DHT22;35816;44.498;0.166;2022-10-15T14:06:15;28.70;48.20
45213;DHT22;35816;44.498;0.166;2022-10-15T14:08:41;28.60;48.40
45213;DHT22;35816;44.498;0.166;2022-10-15T14:11:09;28.50;48.60
45213;DHT22;35816;44.498;0.166;2022-10-15T14:13:35;28.50;48.70
45213;DHT22;35816;44.498;0.166;2022-10-15T14:16:11;28.40;48.90
45213;DHT22;35816;44.498;0.166;2022-10-15T14:18:39;28.30;49.10
45213;DHT22;35816;44.498;0.166;2022-10-15T14:21:10;28.30;49.30
45213;DHT22;35816;44.498;0.166;2022-10-15T14:23:37;28.40;49.40
45213;DHT22;35816;44.498;0.166;2022-10-15T14:26:03;28.40;49.40
45213;DHT22;35816;44.498;0.166;2022-10-15T14:28:30;28.30;49.50
45213;DHT22;35816;44.498;0.166;2022-10-15T14:30:57;28.20;49.50
45213;DHT22;35816;44.498;0.166;2022-10-15T14:36:11;27.90;50.10
45213;DHT22;35816;44.498;0.166;2022-10-15T14:38:37;27.70;50.20
45213;DHT22;35816;44.498;0.166;2022-10-15T14:41:04;27.50;50.40
45213;DHT22;35816;44.498;0.166;2022-10-15T14:43:34;27.40;50.60
45213;DHT22;35816;44.498;0.166;2022-10-15T14:46:00;27.20;50.80
45213;DHT22;35816;44.498;0.166;2022-10-15T14:48:30;27.00;51.00
45213;DHT22;35816;44.498;0.166;2022-10-15T14:50:57;26.90;51.20
45213;DHT22;35816;44.498;0.166;2022-10-15T14:53:24;26.80;51.30
45213;DHT22;35816;44.498;0.166;2022-10-15T14:55:52;26.80;51.50
45213;DHT22;35816;44.498;0.166;2022-10-15T14:58:21;26.80;51.60
45213;DHT22;35816;44.498;0.166;2022-10-15T15:00:53;26.80;51.70
45213;DHT22;35816;44.498;0.166;2022-10-15T15:03:19;26.80;51.80
45213;DHT22;35816;44.498;0.166;2022-10-15T15:05:46;26.80;51.80
45213;DHT22;35816;44.498;0.166;2022-10-15T15:08:13;26.90;52.00
45213;DHT22;35816;44.498;0.166;2022-10-15T15:10:38;27.00;52.20
45213;DHT22;35816;44.498;0.166;2022-10-15T15:13:05;27.00;52.20
45213;DHT22;35816;44.498;0.166;2022-10-15T15:15:30;27.00;52.10
45213;DHT22;35816;44.498;0.166;2022-10-15T15:17:56;27.10;52.20
45213;DHT22;35816;44.498;0.166;2022-10-15T15:20:21;27.10;52.20
45213;DHT22;35816;44.498;0.166;2022-10-15T15:22:49;27.00;52.20
45213;DHT22;35816;44.498;0.166;2022-10-15T15:27:40;26.90;52.30
45213;DHT22;35816;44.498;0.166;2022-10-15T15:30:07;26.80;52.30
45213;DHT22;35816;44.498;0.166;2022-10-15T15:32:37;26.80;52.40
45213;DHT22;35816;44.498;0.166;2022-10-15T15:37:44;26.60;52.60
45213;DHT22;35816;44.498;0.166;2022-10-15T15:40:10;26.60;52.80
45213;DHT22;35816;44.498;0.166;2022-10-15T15:42:36;26.50;52.80
45213;DHT22;35816;44.498;0.166;2022-10-15T15:45:02;26.40;53.00
45213;DHT22;35816;44.498;0.166;2022-10-15T15:47:27;26.30;53.10
45213;DHT22;35816;44.498;0.166;2022-10-15T15:49:53;26.10;53.20
45213;DHT22;35816;44.498;0.166;2022-10-15T15:52:18;26.10;53.40
45213;DHT22;35816;44.498;0.166;2022-10-15T15:54:44;26.00;53.50
45213;DHT22;35816;44.498;0.166;2022-10-15T15:57:13;25.90;53.60
45213;DHT22;35816;44.498;0.166;2022-10-15T15:59:38;25.80;53.80
45213;DHT22;35816;44.498;0.166;2022-10-15T16:02:04;25.70;53.90
45213;DHT22;35816;44.498;0.166;2022-10-15T16:04:29;25.50;54.00
45213;DHT22;35816;44.498;0.166;2022-10-15T16:06:55;25.40;54.10
45213;DHT22;35816;44.498;0.166;2022-10-15T16:09:21;25.40;54.30
45213;DHT22;35816;44.498;0.166;2022-10-15T16:11:47;25.30;54.40
45213;DHT22;35816;44.498;0.166;2022-10-15T16:14:13;25.20;54.50
45213;DHT22;35816;44.498;0.166;2022-10-15T16:16:38;25.20;54.60
45213;DHT22;35816;44.498;0.166;2022-10-15T16:19:04;25.10;54.90
45213;DHT22;35816;44.498;0.166;2022-10-15T16:21:30;25.00;54.90
45213;DHT22;35816;44.498;0.166;2022-10-15T16:23:56;25.00;55.20
45213;DHT22;35816;44.498;0.166;2022-10-15T16:26:21;24.90;55.30
45213;DHT22;35816;44.498;0.166;2022-10-15T16:28:47;24.80;55.40
45213;DHT22;35816;44.498;0.166;2022-10-15T16:33:38;24.60;55.90
45213;DHT22;35816;44.498;0.166;2022-10-15T16:36:04;24.50;55.90
45213;DHT22;35816;44.498;0.166;2022-10-15T16:38:30;24.40;56.20
45213;DHT22;35816;44.498;0.166;2022-10-15T16:40:55;24.30;56.40
45213;DHT22;35816;44.498;0.166;2022-10-15T16:43:21;24.20;56.50
45213;DHT22;35816;44.498;0.166;2022-10-15T16:45:53;24.10;56.60
45213;DHT22;35816;44.498;0.166;2022-10-15T16:48:18;24.00;56.80
45213;DHT22;35816;44.498;0.166;2022-10-15T16:50:44;23.90;57.10
45213;DHT22;35816;44.498;0.166;2022-10-15T16:53:09;23.90;57.30
45213;DHT22;35816;44.498;0.166;2022-10-15T16:55:35;23.80;57.40
45213;DHT22;35816;44.498;0.166;2022-10-15T16:58:00;23.80;57.50
45213;DHT22;35816;44.498;0.166;2022-10-15T17:00:26;23.70;57.60
45213;DHT22;35816;44.498;0.166;2022-10-15T17:02:52;23.60;57.80
45213;DHT22;35816;44.498;0.166;2022-10-15T17:05:19;23.50;58.10
45213;DHT22;35816;44.498;0.166;2022-10-15T17:07:45;23.40;58.20
45213;DHT22;35816;44.498;0.166;2022-10-15T17:10:10;23.30;58.40
45213;DHT22;35816;44.498;0.166;2022-10-15T17:12:36;23.20;58.50
45213;DHT22;35816;44.498;0.166;2022-10-15T17:15:01;23.20;58.70
45213;DHT22;35816;44.498;0.166;2022-10-15T17:17:27;23.10;58.80
45213;DHT22;35816;44.498;0.166;2022-10-15T17:19:52;23.00;59.00
45213;DHT22;35816;44.498;0.166;2022-10-15T17:22:18;22.90;59.20
45213;DHT22;35816;44.498;0.166;2022-10-15T17:24:47;22.80;59.50
45213;DHT22;35816;44.498;0.166;2022-10-15T17:27:12;22.80;59.60
45213;DHT22;35816;44.498;0.166;2022-10-15T17:29:38;22.70;59.70
45213;DHT22;35816;44.498;0.166;2022-10-15T17:32:04;22.60;59.90
45213;DHT22;35816;44.498;0.166;2022-10-15T17:34:29;22.60;60.10
45213;DHT22;35816;44.498;0.166;2022-10-15T17:36:55;22.50;60.20
45213;DHT22;35816;44.498;0.166;2022-10-15T17:39:21;22.40;60.40
45213;DHT22;35816;44.498;0.166;2022-10-15T17:41:48;22.30;60.60
45213;DHT22;35816;44.498;0.166;2022-10-15T17:44:13;22.30;60.80
45213;DHT22;35816;44.498;0.166;2022-10-15T17:46:39;22.20;60.90
45213;DHT22;35816;44.498;0.166;2022-10-15T17:49:05;22.10;61.20
45213;DHT22;35816;44.498;0.166;2022-10-15T17:51:32;22.10;61.30
45213;DHT22;35816;44.498;0.166;2022-10-15T17:54:00;22.00;61.50
45213;DHT22;35816;44.498;0.166;2022-10-15T17:56:38;21.90;61.60
45213;DHT22;35816;44.498;0.166;2022-10-15T17:59:04;21.90;61.80
45213;DHT22;35816;44.498;0.166;2022-10-15T18:01:32;21.80;61.90
45213;DHT22;35816;44.498;0.166;2022-10-15T18:04:02;21.80;62.10
45213;DHT22;35816;44.498;0.166;2022-10-15T18:06:28;21.70;62.10
45213;DHT22;35816;44.498;0.166;2022-10-15T18:08:55;21.70;62.30
45213;DHT22;35816;44.498;0.166;2022-10-15T18:11:27;21.70;62.40
45213;DHT22;35816;44.498;0.166;2022-10-15T18:13:54;21.70;62.60
45213;DHT22;35816;44.498;0.166;2022-10-15T18:19:55;21.60;62.90
45213;DHT22;35816;44.498;0.166;2022-10-15T18:22:21;21.60;63.10
45213;DHT22;35816;44.498;0.166;2022-10-15T18:25:13;21.50;63.30
45213;DHT22;35816;44.498;0.166;2022-10-15T18:30:37;21.50;63.90
45213;DHT22;35816;44.498;0.166;2022-10-15T18:33:11;21.50;64.10
45213;DHT22;35816;44.498;0.166;2022-10-15T18:36:10;21.50;64.20
45213;DHT22;35816;44.498;0.166;2022-10-15T18:38:56;21.50;64.30
45213;DHT22;35816;44.498;0.166;2022-10-15T18:41:46;21.40;64.30
45213;DHT22;35816;44.498;0.166;2022-10-15T19:14:27;20.60;66.70
45213;DHT22;35816;44.498;0.166;2022-10-15T19:17:37;20.60;67.00
45213;DHT22;35816;44.498;0.166;2022-10-15T19:38:44;20.20;68.70
45213;DHT22;35816;44.498;0.166;2022-10-15T19:44:36;20.10;69.50
